Time;durP1;ratioP1;P1;durP2;ratioP2;P2;SDS_P1;SDS_P2;PMS_P1;PMS_P2;Temp;Humidity;BMP_temperature;BMP_pressure;BME280_temperature;BME280_humidity;BME280_pressure;Samples;Min_cycle;Max_cycle;Signal;HPM_P1;HPM_P2
2022/05/25 00:02:13;;;;;;;6.93;6.37;;;;;;;14.29;67.52;100713.41;5037626;28;20460;-64
2022/05/25 00:04:38;;;;;;;7.70;7.10;;;;;;;14.43;67.25;100711.56;5038522;28;20170;-65
2022/05/25 00:07:04;;;;;;;7.10;6.40;;;;;;;14.65;66.62;100706.19;5038111;28;20435;-64
2022/05/25 00:09:29;;;;;;;7.67;6.97;;;;;;;14.49;67.04;100706.28;5037892;28;20447;-64
2022/05/25 00:11:54;;;;;;;6.63;6.13;;;;;;;14.21;68.11;100717.84;5038532;28;20425;-64
2022/05/25 00:14:19;;;;;;;7.30;6.60;;;;;;;14.46;66.66;100716.81;5037943;28;20482;-65
2022/05/25 00:16:45;;;;;;;8.53;7.47;;;;;;;13.93;68.59;100721.44;5037793;28;20228;-63
2022/05/25 00:21:54;;;;;;;7.50;6.80;;;;;;;14.41;67.62;100721.19;5037583;28;20579;-65
2022/05/25 00:24:20;;;;;;;7.30;6.80;;;;;;;14.21;67.94;100723.09;5037919;28;20396;-65
2022/05/25 00:26:45;;;;;;;8.40;7.53;;;;;;;13.95;68.58;100740.69;5038016;28;20186;-64
2022/05/25 00:29:10;;;;;;;7.97;7.30;;;;;;;13.75;69.70;100738.13;5037599;28;20293;-65
2022/05/25 00:31:36;;;;;;;8.07;7.27;;;;;;;14.01;69.16;100744.16;5038357;28;20174;-64
2022/05/25 00:34:02;;;;;;;8.13;7.43;;;;;;;14.21;68.86;100741.44;5037615;28;20482;-65
2022/05/25 00:36:27;;;;;;;7.53;6.93;;;;;;;13.91;69.33;100748.53;5037768;28;20490;-65
2022/05/25 00:38:53;;;;;;;8.10;7.30;;;;;;;14.01;68.63;100754.63;5038122;28;20391;-65
2022/05/25 00:41:23;;;;;;;8.43;7.63;;;;;;;13.99;68.44;100749.41;5037558;28;20476;-65
2022/05/25 00:43:48;;;;;;;8.60;7.47;;;;;;;14.10;68.43;100755.47;5037476;28;20224;-65
2022/05/25 00:46:16;;;;;;;8.03;7.33;;;;;;;13.93;68.99;100752.91;5038143;28;20471;-65
2022/05/25 00:48:50;;;;;;;8.47;7.73;;;;;;;13.77;69.61;100752.09;5037026;28;20551;-64
2022/05/25 00:51:22;;;;;;;8.20;7.50;;;;;;;14.21;68.28;100751.94;5037669;28;20425;-64
2022/05/25 00:54:09;;;;;;;8.30;7.50;;;;;;;14.13;68.40;100760.69;5036708;28;20695;-64
2022/05/25 00:56:35;;;;;;;8.23;7.63;;;;;;;13.89;69.35;100755.56;5036778;28;20818;-64
2022/05/25 00:59:04;;;;;;;8.07;7.37;;;;;;;14.08;68.61;100761.59;5036762;28;20450;-65
2022/05/25 01:01:29;;;;;;;9.00;8.13;;;;;;;14.19;68.09;100764.16;5036660;28;20498;-64
2022/05/25 01:03:55;;;;;;;8.33;7.63;;;;;;;14.21;68.05;100757.16;5040700;28;20515;-65
2022/05/25 01:06:39;;;;;;;8.53;7.83;;;;;;;14.03;68.11;100759.00;5041056;28;20174;-64
2022/05/25 01:09:18;;;;;;;8.37;7.60;;;;;;;13.93;68.88;100755.53;5041263;28;20517;-64
2022/05/25 01:11:49;;;;;;;9.07;8.30;;;;;;;13.85;69.53;100759.06;5040511;28;20391;-65
2022/05/25 01:14:38;;;;;;;8.90;8.20;;;;;;;13.76;69.14;100759.94;5041215;28;20395;-64
2022/05/25 01:17:33;;;;;;;9.40;8.60;;;;;;;13.81;69.31;100768.66;5040715;28;20552;-65
2022/05/25 01:20:08;;;;;;;9.67;8.73;;;;;;;13.79;69.05;100768.69;5040351;28;20478;-65
2022/05/25 01:22:55;;;;;;;9.20;8.40;;;;;;;13.56;70.40;100779.22;5040027;28;20904;-65
2022/05/25 01:25:39;;;;;;;9.73;8.93;;;;;;;13.82;69.50;100781.75;5040795;28;20416;-64
2022/05/25 01:28:42;;;;;;;10.20;9.30;;;;;;;13.52;70.57;100789.69;5040643;28;20429;-64
2022/05/25 01:31:11;;;;;;;9.20;8.40;;;;;;;13.73;70.17;100779.16;5039799;28;20408;-64
2022/05/25 01:33:42;;;;;;;9.20;8.40;;;;;;;13.89;69.49;100782.63;5039816;28;20773;-64
2022/05/25 01:36:24;;;;;;;9.87;8.80;;;;;;;13.97;69.99;100782.59;5039968;28;20413;-64
2022/05/25 01:38:52;;;;;;;8.87;8.17;;;;;;;13.77;70.50;100780.03;5039961;28;20486;-64
2022/05/25 01:41:37;;;;;;;9.23;8.33;;;;;;;14.03;69.53;100781.69;5039917;28;20920;-65
2022/05/25 01:44:21;;;;;;;10.20;9.20;;;;;;;13.40;70.86;100796.69;5040236;28;20444;-64
2022/05/25 01:46:50;;;;;;;9.13;8.33;;;;;;;13.85;69.92;100780.03;5040368;28;20500;-65
2022/05/25 01:49:21;;;;;;;9.70;8.80;;;;;;;13.60;70.61;100787.97;5039610;28;20394;-65
2022/05/25 01:51:54;;;;;;;9.87;9.07;;;;;;;13.72;70.37;100782.69;5039493;28;20412;-65
2022/05/25 01:54:29;;;;;;;9.90;9.10;;;;;;;13.53;70.49;100786.19;5039566;28;20406;-65
2022/05/25 01:56:56;;;;;;;9.90;9.00;;;;;;;13.82;70.07;100786.13;5039500;28;20499;-64
2022/05/25 01:59:22;;;;;;;10.10;9.20;;;;;;;13.85;69.82;100790.50;5039431;28;20787;-64
2022/05/25 02:04:47;;;;;;;10.57;9.67;;;;;;;13.71;70.39;100799.28;5040057;28;20485;-64
2022/05/25 02:07:28;;;;;;;9.30;8.60;;;;;;;13.60;70.62;100793.19;5039192;28;20428;-64
2022/05/25 02:10:10;;;;;;;9.67;8.97;;;;;;;13.73;70.52;100787.03;5039349;28;20512;-64
2022/05/25 02:13:03;;;;;;;10.43;9.60;;;;;;;14.00;69.73;100790.44;5039218;28;20489;-64
2022/05/25 02:15:59;;;;;;;10.47;9.57;;;;;;;13.98;69.61;100787.81;5038760;28;20508;-64
2022/05/25 02:18:37;;;;;;;10.20;9.30;;;;;;;13.62;70.98;100800.16;5039354;28;20429;-64
2022/05/25 02:21:20;;;;;;;10.43;9.53;;;;;;;13.77;70.45;100799.28;5038977;28;20452;-64
2022/05/25 02:23:56;;;;;;;10.87;9.97;;;;;;;13.74;70.47;100796.63;5038866;28;20479;-64
2022/05/25 02:26:28;;;;;;;10.83;9.73;;;;;;;13.79;71.16;100805.38;5039768;28;20398;-63
2022/05/25 02:29:07;;;;;;;10.43;9.50;;;;;;;14.00;69.85;100806.16;5039713;28;20861;-64
2022/05/25 02:31:36;;;;;;;12.57;9.80;;;;;;;13.84;70.76;100800.09;5039607;28;20415;-65
2022/05/25 02:34:03;;;;;;;10.40;9.50;;;;;;;13.67;70.86;100797.53;5038789;28;20379;-65
2022/05/25 02:36:32;;;;;;;10.60;9.70;;;;;;;13.82;71.24;100797.47;5038522;28;20438;-65
2022/05/25 02:38:57;;;;;;;10.90;10.00;;;;;;;13.89;71.39;100794.84;5039671;28;20839;-64
2022/05/25 02:41:32;;;;;;;10.63;9.73;;;;;;;13.88;70.85;100803.59;5039816;28;20407;-64
2022/05/25 02:43:58;;;;;;;10.77;9.87;;;;;;;13.67;71.29;100796.69;5039300;28;20547;-64
2022/05/25 02:46:23;;;;;;;11.10;10.10;;;;;;;13.75;71.09;100803.63;5039248;28;20467;-65
2022/05/25 02:48:49;;;;;;;11.27;10.30;;;;;;;14.15;70.02;100795.63;5039095;28;20429;-65
2022/05/25 02:51:15;;;;;;;11.57;10.37;;;;;;;14.08;70.09;100791.28;5039282;28;20174;-64
2022/05/25 02:53:40;;;;;;;11.50;10.50;;;;;;;13.81;70.75;100795.75;5039135;28;20428;-65
2022/05/25 02:56:06;;;;;;;11.67;10.57;;;;;;;13.39;71.56;100797.56;5039002;28;20181;-64
2022/05/25 02:58:31;;;;;;;11.40;10.30;;;;;;;13.49;71.63;100795.84;5039140;28;20194;-64
2022/05/25 03:00:57;;;;;;;10.57;9.67;;;;;;;13.75;71.22;100794.91;5038655;28;20193;-65
2022/05/25 03:03:22;;;;;;;11.97;10.87;;;;;;;13.50;71.67;100805.41;5038742;28;20183;-65
2022/05/25 03:05:48;;;;;;;11.70;10.60;;;;;;;13.36;71.86;100797.59;5038728;28;20177;-64
2022/05/25 03:08:13;;;;;;;11.20;10.30;;;;;;;13.56;72.14;100804.56;5039184;28;20163;-63
2022/05/25 03:10:39;;;;;;;11.67;10.67;;;;;;;13.31;72.78;100800.19;5038848;28;20221;-65
2022/05/25 03:13:06;;;;;;;12.07;11.07;;;;;;;13.57;71.81;100814.13;5037886;28;20478;-65
2022/05/25 03:15:31;;;;;;;12.60;11.40;;;;;;;13.56;71.67;100801.94;5039129;28;20162;-65
2022/05/25 03:17:56;;;;;;;13.77;11.43;;;;;;;13.72;71.29;100802.75;5038428;28;20449;-64
2022/05/25 03:20:22;;;;;;;12.17;11.07;;;;;;;13.79;71.10;100807.13;5038574;28;20178;-65
2022/05/25 03:22:47;;;;;;;12.17;11.00;;;;;;;13.36;71.97;100818.53;5038793;28;20229;-65
2022/05/25 03:25:13;;;;;;;12.30;11.20;;;;;;;13.62;71.71;100821.09;5038280;28;20178;-64
2022/05/25 03:27:39;;;;;;;12.20;11.10;;;;;;;13.18;72.40;100826.34;5038529;28;20591;-64
2022/05/25 03:30:05;;;;;;;12.33;11.33;;;;;;;13.34;72.20;100821.97;5039020;28;20193;-65
2022/05/25 03:32:31;;;;;;;14.00;11.70;;;;;;;13.46;72.01;100824.63;5038243;28;20166;-64
2022/05/25 03:34:57;;;;;;;12.90;11.70;;;;;;;13.51;72.19;100833.34;5038382;28;20406;-65
2022/05/25 03:37:22;;;;;;;12.27;11.07;;;;;;;13.42;72.32;100829.00;5038683;28;20170;-64
2022/05/25 03:39:48;;;;;;;13.17;11.90;;;;;;;13.26;72.62;100827.22;5038346;28;20795;-66
2022/05/25 03:42:15;;;;;;;13.47;12.20;;;;;;;13.13;72.58;100835.06;5038062;28;20194;-64
2022/05/25 03:44:40;;;;;;;13.90;12.60;;;;;;;13.55;71.90;100836.84;5038761;28;20170;-63
2022/05/25 03:47:05;;;;;;;13.80;12.50;;;;;;;13.00;73.42;100840.31;5038164;28;20784;-64
2022/05/25 03:49:31;;;;;;;13.30;12.17;;;;;;;13.34;72.42;100838.59;5038482;28;20185;-65
2022/05/25 03:51:56;;;;;;;12.87;11.77;;;;;;;13.11;72.97;100844.69;5038406;28;20168;-64
2022/05/25 03:54:22;;;;;;;14.10;12.80;;;;;;;13.59;72.33;100838.59;5038181;28;20531;-65
2022/05/25 03:56:47;;;;;;;13.73;12.43;;;;;;;13.72;71.16;100842.94;5038129;28;20232;-64
2022/05/25 03:59:12;;;;;;;15.27;12.67;;;;;;;13.49;71.08;100840.34;5038537;28;20249;-64
2022/05/25 04:01:38;;;;;;;13.83;12.63;;;;;;;13.77;70.97;100843.81;5037908;28;20240;-65
2022/05/25 04:04:04;;;;;;;13.23;12.03;;;;;;;13.89;70.13;100847.28;5037867;28;20484;-65
2022/05/25 04:06:29;;;;;;;12.17;11.10;;;;;;;14.00;70.18;100849.88;5038379;28;20551;-65
2022/05/25 04:08:54;;;;;;;12.23;11.13;;;;;;;14.05;69.16;100848.09;5038010;28;20757;-65
2022/05/25 04:11:20;;;;;;;12.13;11.10;;;;;;;15.15;66.93;100838.81;5037959;28;20181;-66
2022/05/25 04:13:45;;;;;;;12.10;11.07;;;;;;;15.98;62.37;100839.81;5038339;28;20166;-64
2022/05/25 04:16:11;;;;;;;10.53;9.60;;;;;;;16.78;60.34;100837.91;5037838;28;20309;-65
2022/05/25 04:18:36;;;;;;;9.23;8.43;;;;;;;17.93;57.06;100842.19;5037874;28;20174;-64
2022/05/25 04:21:02;;;;;;;10.00;9.10;;;;;;;17.69;56.33;100843.50;5038513;28;20186;-65
2022/05/25 04:23:28;;;;;;;9.47;8.77;;;;;;;18.39;54.49;100832.47;5037690;28;20170;-65
2022/05/25 04:25:54;;;;;;;9.90;9.10;;;;;;;18.51;53.93;100842.78;5037457;28;20162;-64
2022/05/25 04:28:20;;;;;;;8.60;7.80;;;;;;;18.95;52.97;100836.56;5037603;28;20478;-64
2022/05/25 04:30:45;;;;;;;9.17;8.27;;;;;;;19.14;51.86;100837.84;5037698;28;20413;-66
2022/05/25 04:33:11;;;;;;;8.20;7.60;;;;;;;18.92;51.67;100837.50;5037509;28;20399;-65
2022/05/25 04:35:36;;;;;;;8.93;8.13;;;;;;;18.74;52.30;100844.03;5038502;28;20181;-65
2022/05/25 04:38:01;;;;;;;9.33;8.50;;;;;;;19.29;51.50;100846.31;5039397;28;20185;-65
2022/05/25 04:40:41;;;;;;;8.30;7.70;;;;;;;18.72;52.62;100840.56;5041555;28;20185;-64
2022/05/25 04:43:09;;;;;;;10.03;9.03;;;;;;;19.51;50.92;100839.56;5040839;28;20535;-64
2022/05/25 04:45:38;;;;;;;9.47;8.67;;;;;;;19.88;50.19;100847.44;5041445;28;20412;-64
2022/05/25 04:48:03;;;;;;;9.40;8.67;;;;;;;19.04;51.26;100846.03;5042052;28;20487;-64
2022/05/25 04:50:33;;;;;;;8.93;8.20;;;;;;;20.43;49.02;100842.34;5041414;28;20805;-65
2022/05/25 04:52:59;;;;;;;9.10;8.40;;;;;;;20.91;47.57;100840.94;5041162;28;20213;-64
2022/05/25 04:58:17;;;;;;;8.43;7.73;;;;;;;20.27;48.29;100850.75;5040601;28;20471;-64
2022/05/25 05:00:43;;;;;;;8.37;7.63;;;;;;;20.91;47.00;100843.59;5041244;28;20417;-64
2022/05/25 05:03:08;;;;;;;7.80;7.30;;;;;;;21.35;44.87;100844.78;5041163;28;20413;-65
2022/05/25 05:05:33;;;;;;;7.80;7.20;;;;;;;21.83;44.93;100848.47;5041503;28;20447;-66
2022/05/25 05:07:58;;;;;;;7.90;7.20;;;;;;;20.56;46.97;100845.53;5041669;28;20181;-63
2022/05/25 05:10:24;;;;;;;8.07;7.30;;;;;;;20.18;47.61;100854.53;5041074;28;20166;-65
2022/05/25 05:12:49;;;;;;;7.47;6.60;;;;;;;20.88;46.37;100854.25;5040850;28;20497;-64
2022/05/25 05:15:14;;;;;;;7.00;6.40;;;;;;;22.06;43.84;100857.38;5041376;28;20167;-64
2022/05/25 05:17:40;;;;;;;7.67;7.07;;;;;;;20.94;46.39;100865.53;5040749;28;20229;-64
2022/05/25 05:20:06;;;;;;;7.10;6.50;;;;;;;20.99;46.06;100854.81;5041003;28;20248;-65
2022/05/25 05:22:31;;;;;;;7.40;6.80;;;;;;;22.47;42.87;100849.69;5041031;28;20201;-65
2022/05/25 05:24:57;;;;;;;7.27;6.70;;;;;;;21.93;43.41;100869.38;5040698;28;20475;-65
2022/05/25 05:27:22;;;;;;;7.00;6.30;;;;;;;22.81;42.21;100855.47;5039979;28;20166;-65
2022/05/25 05:29:48;;;;;;;7.60;6.90;;;;;;;22.90;41.65;100849.78;5040950;28;20512;-65
2022/05/25 05:32:13;;;;;;;7.40;6.70;;;;;;;22.83;42.40;100861.59;5040448;28;20177;-64
2022/05/25 05:34:39;;;;;;;7.67;6.97;;;;;;;21.73;43.78;100876.25;5040539;28;20249;-64
2022/05/25 05:37:08;;;;;;;7.20;6.60;;;;;;;22.69;41.86;100870.09;5041036;28;20544;-65
2022/05/25 05:39:37;;;;;;;7.13;6.53;;;;;;;23.71;40.01;100868.66;5039851;28;20188;-65
2022/05/25 05:42:07;;;;;;;7.80;6.27;;;;;;;23.53;39.41;100870.31;5039598;28;20782;-66
2022/05/25 05:44:43;;;;;;;7.07;6.47;;;;;;;24.50;38.73;100873.13;5039766;28;20508;-66
2022/05/25 05:47:11;;;;;;;6.93;6.33;;;;;;;22.39;41.75;100880.13;5039600;28;20413;-65
2022/05/25 05:49:37;;;;;;;6.90;6.20;;;;;;;23.29;39.79;100874.88;5040288;28;20681;-65
2022/05/25 05:52:03;;;;;;;6.50;6.00;;;;;;;24.32;38.30;100873.06;5040138;28;20421;-66
2022/05/25 05:54:28;;;;;;;6.43;5.93;;;;;;;24.21;38.69;100878.88;5040496;28;20497;-66
2022/05/25 05:56:54;;;;;;;6.23;5.73;;;;;;;23.62;39.22;100874.38;5040200;28;20550;-66
2022/05/25 05:59:19;;;;;;;6.10;5.60;;;;;;;24.23;38.33;100876.13;5040184;28;20224;-65
2022/05/25 06:01:45;;;;;;;6.40;5.93;;;;;;;23.55;39.62;100876.41;5040626;28;20305;-65
2022/05/25 06:04:11;;;;;;;8.20;6.90;;;;;;;23.53;40.26;100865.84;5039941;28;20181;-66
2022/05/25 06:06:36;;;;;;;6.37;5.87;;;;;;;24.10;38.66;100873.19;5040098;28;20413;-66
2022/05/25 06:09:02;;;;;;;7.20;6.70;;;;;;;23.98;38.71;100879.91;5040247;28;20158;-66
2022/05/25 06:11:27;;;;;;;6.47;5.97;;;;;;;23.76;38.70;100882.63;5039916;28;20173;-66
2022/05/25 06:13:52;;;;;;;6.33;5.50;;;;;;;24.89;37.26;100883.75;5039765;28;20249;-66
2022/05/25 06:21:45;;;;;;;6.87;5.30;;;;;;;24.67;37.54;100881.25;5039895;28;20503;-65
2022/05/25 06:24:11;;;;;;;6.27;5.77;;;;;;;23.75;38.66;100886.22;5039557;28;20445;-66
2022/05/25 06:26:36;;;;;;;6.50;5.80;;;;;;;24.19;38.17;100895.84;5039509;28;20536;-66
2022/05/25 06:29:02;;;;;;;6.73;6.13;;;;;;;24.41;37.17;100885.09;5039915;28;20240;-66
2022/05/25 06:31:28;;;;;;;6.37;5.90;;;;;;;24.59;37.03;100890.53;5039304;28;20173;-66
2022/05/25 06:33:54;;;;;;;6.27;5.77;;;;;;;24.36;36.78;100892.44;5039222;28;20174;-66
2022/05/25 06:36:22;;;;;;;6.37;5.77;;;;;;;24.04;37.82;100898.28;5039874;28;20717;-67
2022/05/25 06:38:48;;;;;;;6.10;5.60;;;;;;;24.97;36.58;100893.19;5039234;28;20449;-67
2022/05/25 06:41:14;;;;;;;6.47;5.97;;;;;;;23.66;38.43;100895.44;5038852;28;20912;-66
2022/05/25 06:43:40;;;;;;;6.70;6.10;;;;;;;24.11;37.93;100901.56;5039592;28;20181;-65
2022/05/25 06:46:06;;;;;;;5.90;5.40;;;;;;;24.91;36.26;100898.81;5039258;28;20413;-66
2022/05/25 06:48:31;;;;;;;6.00;5.50;;;;;;;24.88;36.14;100895.38;5038953;28;20440;-67
2022/05/25 06:50:57;;;;;;;5.73;5.30;;;;;;;25.46;35.62;100896.13;5039412;28;20527;-65
2022/05/25 06:53:22;;;;;;;6.50;5.87;;;;;;;24.98;35.94;100901.13;5039116;28;20228;-66
2022/05/25 06:55:47;;;;;;;6.10;5.50;;;;;;;24.53;37.14;100895.19;5039236;28;20220;-66
2022/05/25 06:58:12;;;;;;;6.20;5.80;;;;;;;24.76;35.97;100900.41;5039528;28;20251;-66
2022/05/25 07:00:38;;;;;;;6.10;5.70;;;;;;;24.62;36.59;100901.91;5038500;28;20174;-65
2022/05/25 07:03:04;;;;;;;5.67;5.27;;;;;;;24.82;36.17;100903.66;5038740;28;20296;-64
2022/05/25 07:05:30;;;;;;;6.13;5.63;;;;;;;25.48;35.21;100896.94;5039258;28;20186;-66
2022/05/25 07:07:55;;;;;;;5.80;5.37;;;;;;;25.72;33.84;100897.47;5038951;28;20428;-66
2022/05/25 07:10:21;;;;;;;5.70;5.20;;;;;;;26.04;32.76;100896.78;5038732;28;20170;-66
2022/05/25 07:12:46;;;;;;;5.47;5.07;;;;;;;25.25;34.72;100902.50;5038932;28;20174;-66
2022/05/25 07:15:11;;;;;;;5.47;5.07;;;;;;;25.83;32.74;100904.94;5038540;28;20494;-66
2022/05/25 07:17:37;;;;;;;7.30;5.30;;;;;;;26.39;32.95;100902.03;5038352;28;20218;-67
2022/05/25 07:20:06;;;;;;;5.20;4.70;;;;;;;26.00;32.24;100911.19;5038957;28;20227;-67
2022/05/25 07:22:31;;;;;;;5.13;4.77;;;;;;;26.45;31.85;100917.72;5037662;28;20457;-66
2022/05/25 07:24:57;;;;;;;5.50;5.03;;;;;;;25.10;33.59;100915.66;5038456;28;20420;-66
2022/05/25 07:27:22;;;;;;;5.70;5.17;;;;;;;25.10;33.33;100912.13;5038848;28;20194;-66
2022/05/25 07:29:47;;;;;;;7.63;5.40;;;;;;;24.80;33.95;100918.88;5038418;28;20170;-66
2022/05/25 07:32:14;;;;;;;5.93;5.53;;;;;;;25.26;33.68;100920.25;5038126;28;20185;-67
2022/05/25 07:34:44;;;;;;;5.70;5.20;;;;;;;24.79;34.41;100924.25;5038716;28;20162;-66
2022/05/25 07:37:15;;;;;;;6.00;5.60;;;;;;;25.16;34.13;100926.03;5037496;28;20413;-66
2022/05/25 07:39:45;;;;;;;5.50;5.10;;;;;;;26.23;32.74;100923.38;5038090;28;20682;-65
2022/05/25 07:42:12;;;;;;;5.90;5.40;;;;;;;25.78;33.14;100928.34;5037270;28;20468;-66
2022/05/25 07:44:40;;;;;;;5.87;5.37;;;;;;;26.78;31.62;100918.66;5037401;28;20691;-66
2022/05/25 07:47:06;;;;;;;5.27;4.87;;;;;;;26.13;32.09;100927.47;5037784;28;20405;-67
2022/05/25 07:49:31;;;;;;;5.80;5.30;;;;;;;26.64;31.65;100917.59;5038070;28;20417;-67
2022/05/25 07:51:57;;;;;;;5.30;4.90;;;;;;;26.15;32.16;100929.13;5038000;28;20416;-67
2022/05/25 07:54:23;;;;;;;5.53;5.03;;;;;;;26.04;32.25;100934.16;5038438;28;20167;-66
2022/05/25 07:56:49;;;;;;;6.27;5.67;;;;;;;25.45;32.82;100917.56;5037921;28;20443;-67
2022/05/25 07:59:15;;;;;;;6.83;5.30;;;;;;;26.34;32.09;100925.47;5037983;28;20169;-67
2022/05/25 08:07:14;;;;;;;5.50;5.10;;;;;;;24.99;34.55;100918.84;5037419;28;20837;-66
2022/05/25 08:09:39;;;;;;;6.53;5.33;;;;;;;25.71;33.01;100916.25;5037164;28;20413;-67
2022/05/25 08:12:07;;;;;;;5.93;5.43;;;;;;;25.14;32.82;100909.25;5037210;28;20177;-66
2022/05/25 08:14:32;;;;;;;5.70;5.20;;;;;;;25.98;31.20;100915.75;5042434;28;20201;-66
2022/05/25 08:16:57;;;;;;;5.67;5.27;;;;;;;26.78;30.93;100908.84;5041940;28;20464;-66
2022/05/25 08:19:23;;;;;;;6.00;5.40;;;;;;;25.77;32.42;100918.59;5041923;28;20174;-67
2022/05/25 08:21:49;;;;;;;5.17;4.77;;;;;;;26.26;30.82;100917.00;5042258;28;20429;-66
2022/05/25 08:24:15;;;;;;;4.80;4.50;;;;;;;26.89;30.17;100909.09;5040967;28;20869;-67
2022/05/25 08:26:41;;;;;;;5.13;4.77;;;;;;;26.85;30.37;100920.06;5041673;28;20405;-66
2022/05/25 08:29:06;;;;;;;4.97;4.57;;;;;;;26.96;29.54;100912.28;5041351;28;20499;-66
2022/05/25 08:31:32;;;;;;;5.50;5.10;;;;;;;24.83;34.20;100924.06;5041779;28;20500;-66
2022/05/25 08:33:57;;;;;;;5.00;4.60;;;;;;;23.49;36.42;100925.44;5041668;28;20433;-66
2022/05/25 08:36:22;;;;;;;4.97;4.57;;;;;;;24.88;34.23;100926.50;5042197;28;20181;-66
2022/05/25 08:38:48;;;;;;;5.40;4.40;;;;;;;26.02;30.53;100920.91;5041588;28;20181;-66
2022/05/25 08:41:13;;;;;;;4.93;3.90;;;;;;;26.55;30.07;100915.44;5041503;28;20262;-67
2022/05/25 08:43:45;;;;;;;5.60;4.00;;;;;;;26.65;29.93;100908.63;5041732;28;20178;-67
2022/05/25 08:46:14;;;;;;;4.70;4.30;;;;;;;26.91;29.38;100909.00;5040805;28;20532;-66
2022/05/25 08:48:40;;;;;;;4.30;4.00;;;;;;;27.65;29.11;100909.25;5040715;28;20447;-67
2022/05/25 08:51:12;;;;;;;4.10;3.80;;;;;;;26.46;30.38;100916.78;5041235;28;20519;-66
2022/05/25 08:53:38;;;;;;;4.50;4.20;;;;;;;25.75;30.97;100915.16;5041040;28;20810;-67
2022/05/25 08:56:22;;;;;;;4.30;4.00;;;;;;;26.15;30.42;100912.22;5041366;28;20825;-67
2022/05/25 08:59:07;;;;;;;4.30;3.90;;;;;;;26.05;30.52;100919.88;5040437;28;20507;-66
2022/05/25 09:01:36;;;;;;;4.23;3.83;;;;;;;26.79;29.69;100907.91;5040283;28;20492;-66
2022/05/25 09:04:11;;;;;;;4.57;4.17;;;;;;;26.26;31.62;100923.19;5040944;28;20491;-66
2022/05/25 09:06:53;;;;;;;4.60;4.30;;;;;;;25.10;32.15;100913.00;5041003;28;20404;-67
2022/05/25 09:09:31;;;;;;;4.70;4.40;;;;;;;26.32;29.96;100903.31;5040302;28;20463;-67
2022/05/25 09:12:01;;;;;;;4.43;4.03;;;;;;;26.65;29.73;100905.94;5039951;28;20420;-68
2022/05/25 09:14:33;;;;;;;4.43;4.13;;;;;;;26.22;30.32;100917.19;5039802;28;20413;-67
2022/05/25 09:17:04;;;;;;;4.60;4.30;;;;;;;24.61;31.18;100918.81;5040546;28;20464;-65
2022/05/25 09:19:32;;;;;;;4.87;4.50;;;;;;;25.39;30.58;100916.06;5040812;28;20508;-66
2022/05/25 09:22:02;;;;;;;4.47;4.17;;;;;;;27.09;28.30;100907.13;5039597;28;20555;-66
2022/05/25 09:24:28;;;;;;;4.63;4.23;;;;;;;27.03;28.33;100910.97;5040177;28;20672;-66
2022/05/25 09:26:54;;;;;;;4.30;3.90;;;;;;;25.46;30.87;100917.47;5040327;28;20417;-64
2022/05/25 09:29:21;;;;;;;5.00;4.70;;;;;;;24.44;31.97;100913.41;5040755;28;20429;-66
2022/05/25 09:31:52;;;;;;;5.50;5.00;;;;;;;23.82;33.40;100914.28;5040177;28;20175;-66
2022/05/25 09:34:38;;;;;;;5.27;4.83;;;;;;;23.03;35.85;100924.63;5040362;28;20409;-66
2022/05/25 09:37:16;;;;;;;6.03;5.43;;;;;;;22.42;36.47;100928.69;5039432;28;20428;-65
2022/05/25 09:39:44;;;;;;;5.50;5.10;;;;;;;24.54;32.65;100918.25;5039580;28;20428;-66
2022/05/25 09:42:13;;;;;;;8.27;4.40;;;;;;;25.68;30.94;100921.72;5040206;28;20464;-66
2022/05/25 09:44:39;;;;;;;6.20;4.90;;;;;;;25.75;30.71;100925.84;5040238;28;20429;-66
2022/05/25 09:47:07;;;;;;;4.60;4.30;;;;;;;25.55;31.14;100924.16;5040447;28;20405;-66
2022/05/25 09:49:53;;;;;;;4.83;4.43;;;;;;;25.98;30.30;100929.09;5040211;28;20167;-64
2022/05/25 09:52:47;;;;;;;7.63;4.53;;;;;;;24.49;32.07;100924.72;5039329;28;20409;-65
2022/05/25 09:55:30;;;;;;;4.63;4.20;;;;;;;25.48;30.62;100920.94;5038963;28;20873;-65
2022/05/25 09:57:59;;;;;;;9.60;7.93;;;;;;;26.04;29.62;100923.47;5039244;28;20417;-66
2022/05/25 10:00:38;;;;;;;5.53;4.17;;;;;;;24.09;32.80;100926.53;5039236;28;20424;-65
2022/05/25 10:03:10;;;;;;;4.67;4.20;;;;;;;22.82;34.84;100932.50;5039729;28;20449;-65
2022/05/25 10:05:57;;;;;;;4.60;4.30;;;;;;;23.45;34.50;100930.94;5039269;28;20424;-66
2022/05/25 10:08:37;;;;;;;4.30;4.00;;;;;;;25.79;31.18;100911.38;5039884;28;20710;-66
2022/05/25 10:11:29;;;;;;;4.23;3.83;;;;;;;25.53;31.96;100915.38;5039932;28;20415;-66
2022/05/25 10:13:56;;;;;;;4.13;3.80;;;;;;;24.67;31.62;100912.38;5039643;28;20814;-65
2022/05/25 10:16:29;;;;;;;4.53;4.13;;;;;;;25.19;31.60;100911.69;5038706;28;20510;-65
2022/05/25 10:18:55;;;;;;;19.43;5.90;;;;;;;26.19;30.26;100920.00;5038607;28;20447;-65
2022/05/25 10:21:30;;;;;;;5.40;3.80;;;;;;;25.03;31.36;100924.88;5039415;28;20458;-65
2022/05/25 10:23:57;;;;;;;6.70;4.53;;;;;;;25.73;30.18;100917.03;5038698;28;20724;-66
2022/05/25 10:26:33;;;;;;;9.70;5.60;;;;;;;25.07;30.67;100915.78;5039618;28;20506;-66
2022/05/25 10:29:12;;;;;;;29.40;9.93;;;;;;;24.81;31.11;100920.56;5039383;28;20447;-66
2022/05/25 10:37:22;;;;;;;5.13;3.57;;;;;;;23.56;32.87;100920.75;5038418;28;20423;-64
2022/05/25 10:39:54;;;;;;;4.17;3.77;;;;;;;25.44;30.89;100919.38;5039556;28;20846;-65
2022/05/25 10:42:37;;;;;;;3.67;3.40;;;;;;;25.06;30.06;100924.75;5039103;28;20457;-66
2022/05/25 10:45:11;;;;;;;3.77;3.47;;;;;;;23.90;32.49;100911.34;5039215;28;20512;-66
2022/05/25 10:47:55;;;;;;;9.10;4.47;;;;;;;24.98;30.37;100911.78;5038495;28;20495;-66
2022/05/25 10:50:39;;;;;;;9.50;4.53;;;;;;;24.93;30.72;100918.28;5039013;28;20413;-66
2022/05/25 10:53:20;;;;;;;13.53;5.30;;;;;;;25.87;29.71;100902.94;5038029;28;20807;-66
2022/05/25 10:55:51;;;;;;;4.90;3.40;;;;;;;25.07;31.05;100910.47;5038577;28;20427;-66
2022/05/25 10:58:22;;;;;;;34.00;27.57;;;;;;;24.67;31.02;100907.06;5037929;28;20409;-65
2022/05/25 11:01:18;;;;;;;10.83;9.80;;;;;;;25.58;29.87;100915.16;5038696;28;20644;-65
2022/05/25 11:04:02;;;;;;;18.00;15.13;;;;;;;25.13;30.81;100915.50;5037750;28;20436;-66
2022/05/25 11:06:41;;;;;;;4.00;3.70;;;;;;;24.27;30.61;100917.69;5038007;28;20564;-66
2022/05/25 11:09:25;;;;;;;3.80;3.50;;;;;;;23.46;32.56;100914.06;5038773;28;20862;-66
2022/05/25 11:11:59;;;;;;;3.57;3.37;;;;;;;24.41;31.13;100911.75;5038368;28;20431;-66
2022/05/25 11:14:36;;;;;;;4.10;3.70;;;;;;;25.45;29.96;100915.78;5037701;28;20535;-66
2022/05/25 11:17:30;;;;;;;5.50;3.87;;;;;;;25.92;29.80;100913.41;5038064;28;20471;-66
2022/05/25 11:20:26;;;;;;;3.93;3.57;;;;;;;25.56;31.01;100912.56;5037573;28;20560;-65
2022/05/25 11:23:29;;;;;;;3.50;3.30;;;;;;;25.00;31.27;100909.03;5038218;28;20505;-66
2022/05/25 11:26:17;;;;;;;3.40;3.10;;;;;;;24.03;30.26;100909.88;5037708;28;20432;-65
2022/05/25 11:29:06;;;;;;;4.00;3.60;;;;;;;24.31;30.53;100899.78;5038312;28;20457;-66
2022/05/25 11:31:48;;;;;;;3.70;3.30;;;;;;;24.24;30.87;100907.19;5038255;28;20437;-65
2022/05/25 11:34:45;;;;;;;3.90;3.33;;;;;;;24.09;30.55;100908.72;5038394;28;20420;-66
2022/05/25 11:37:22;;;;;;;4.10;3.80;;;;;;;23.50;32.61;100903.25;5037955;28;20428;-65
2022/05/25 11:40:09;;;;;;;4.10;3.80;;;;;;;22.91;32.55;100912.69;5037563;28;20470;-66
2022/05/25 11:43:05;;;;;;;3.43;3.13;;;;;;;22.89;32.95;100903.88;5037337;28;20711;-66
2022/05/25 11:45:41;;;;;;;3.97;3.57;;;;;;;22.99;33.08;100912.38;5037478;28;20420;-64
2022/05/25 11:48:35;;;;;;;3.83;3.53;;;;;;;22.79;34.14;100895.41;5037278;28;20474;-66
2022/05/25 11:51:23;;;;;;;3.83;3.53;;;;;;;23.09;33.96;100897.78;5037328;28;20405;-65
2022/05/25 11:54:01;;;;;;;4.40;4.00;;;;;;;23.97;32.16;100899.47;5037215;28;20516;-65
2022/05/25 11:56:50;;;;;;;3.80;3.50;;;;;;;23.50;33.56;100900.56;5038215;28;20447;-65
2022/05/25 11:59:36;;;;;;;9.00;4.67;;;;;;;23.61;32.84;100883.28;5037270;28;20412;-65
2022/05/25 12:02:26;;;;;;;8.37;3.70;;;;;;;23.40;32.77;100891.22;5037621;28;20881;-65
2022/05/25 12:05:14;;;;;;;3.77;3.47;;;;;;;22.65;33.76;100893.28;5037147;28;20423;-65